Time;durP1;ratioP1;P1;durP2;ratioP2;P2;SDS_P1;SDS_P2;PMS_P1;PMS_P2;Temp;Humidity;BMP_temperature;BMP_pressure;BME280_temperature;BME280_humidity;BME280_pressure;Samples;Min_cycle;Max_cycle;Signal;HPM_P1;HPM_P2
2023/03/16 00:02:11;;;;;;;9.65;3.08;;;;;;;;;;5036128;28;20136;-90
2023/03/16 00:04:39;;;;;;;9.15;3.10;;;;;;;;;;5035981;28;20077;-90
2023/03/16 00:07:07;;;;;;;6.57;3.97;;;;;;;;;;5036111;28;20055;-90
2023/03/16 00:09:39;;;;;;;5.85;3.42;;;;;;;;;;5036036;28;20103;-89
2023/03/16 00:12:14;;;;;;;4.68;3.28;;;;;;;;;;5036238;28;20475;-89
2023/03/16 00:14:43;;;;;;;7.85;3.15;;;;;;;;;;5039590;28;20405;-91
2023/03/16 00:17:17;;;;;;;7.53;3.03;;;;;;;;;;5044404;28;20084;-89
2023/03/16 00:19:53;;;;;;;7.63;3.35;;;;;;;;;;5038839;28;20080;-90
2023/03/16 00:22:22;;;;;;;7.95;2.97;;;;;;;;;;5036027;28;20378;-90
2023/03/16 00:24:49;;;;;;;4.63;2.70;;;;;;;;;;5035614;28;20061;-89
2023/03/16 00:27:17;;;;;;;9.38;3.25;;;;;;;;;;5035674;28;20151;-90
2023/03/16 00:29:47;;;;;;;4.60;3.10;;;;;;;;;;5035912;28;20152;-90
2023/03/16 00:32:19;;;;;;;7.05;3.10;;;;;;;;;;5035812;28;20073;-89
2023/03/16 00:34:47;;;;;;;6.38;3.05;;;;;;;;;;5035653;28;20148;-91
2023/03/16 00:37:16;;;;;;;4.50;2.67;;;;;;;;;;5038197;28;20464;-90
2023/03/16 00:39:44;;;;;;;9.77;2.83;;;;;;;;;;5039776;28;20531;-90
2023/03/16 00:42:13;;;;;;;5.25;3.00;;;;;;;;;;5039754;28;20073;-89
2023/03/16 00:44:41;;;;;;;5.95;3.00;;;;;;;;;;5039938;28;20145;-90
2023/03/16 00:47:08;;;;;;;7.50;3.20;;;;;;;;;;5039574;28;20139;-90
2023/03/16 00:49:36;;;;;;;7.30;3.10;;;;;;;;;;5039721;28;20504;-91
2023/03/16 00:52:07;;;;;;;6.60;2.90;;;;;;;;;;5039989;28;20053;-90
2023/03/16 00:54:34;;;;;;;7.03;2.88;;;;;;;;;;5039544;28;20061;-91
2023/03/16 00:57:02;;;;;;;11.88;3.75;;;;;;;;;;5039586;28;20135;-91
2023/03/16 00:59:30;;;;;;;9.02;3.63;;;;;;;;;;5039487;28;20140;-91
2023/03/16 01:01:57;;;;;;;9.55;2.95;;;;;;;;;;5040557;28;20053;-92
2023/03/16 01:04:25;;;;;;;8.00;3.45;;;;;;;;;;5038978;28;20055;-92
2023/03/16 01:06:52;;;;;;;9.40;3.38;;;;;;;;;;5039185;28;20076;-92
2023/03/16 01:09:19;;;;;;;10.98;4.05;;;;;;;;;;5039375;28;20152;-89
2023/03/16 01:11:50;;;;;;;6.30;2.92;;;;;;;;;;5039276;28;20059;-89
2023/03/16 01:14:17;;;;;;;6.05;3.50;;;;;;;;;;5039426;28;20152;-92
2023/03/16 01:16:45;;;;;;;5.97;3.22;;;;;;;;;;5039089;28;20136;-92
2023/03/16 01:19:13;;;;;;;9.70;3.10;;;;;;;;;;5039003;28;20040;-93
2023/03/16 01:21:41;;;;;;;6.30;2.97;;;;;;;;;;5039447;28;20485;-90
2023/03/16 01:24:09;;;;;;;9.50;2.97;;;;;;;;;;5039041;28;20139;-90
2023/03/16 01:26:36;;;;;;;8.35;3.08;;;;;;;;;;5039211;28;20107;-90
2023/03/16 01:29:04;;;;;;;9.13;2.70;;;;;;;;;;5038969;28;20139;-90
2023/03/16 01:31:31;;;;;;;8.75;3.17;;;;;;;;;;5041251;28;20076;-90
2023/03/16 01:33:59;;;;;;;4.10;2.80;;;;;;;;;;5039757;28;20144;-90
2023/03/16 01:36:27;;;;;;;9.45;2.70;;;;;;;;;;5038800;28;20055;-92
2023/03/16 01:38:54;;;;;;;4.72;2.58;;;;;;;;;;5038790;28;20069;-93
2023/03/16 01:41:21;;;;;;;5.07;2.33;;;;;;;;;;5039011;28;20068;-91
2023/03/16 01:43:50;;;;;;;4.50;2.45;;;;;;;;;;5038516;28;20059;-91
2023/03/16 01:46:20;;;;;;;5.25;2.85;;;;;;;;;;5038479;28;20051;-90
2023/03/16 01:49:06;;;;;;;7.00;2.28;;;;;;;;;;5038646;28;20400;-90
2023/03/16 01:51:42;;;;;;;7.38;2.78;;;;;;;;;;5039347;28;20053;-91
2023/03/16 01:54:16;;;;;;;8.77;3.10;;;;;;;;;;5039295;28;20139;-90
2023/03/16 01:56:54;;;;;;;2.78;2.25;;;;;;;;;;5038800;28;20059;-90
2023/03/16 01:59:23;;;;;;;6.38;2.58;;;;;;;;;;5038968;28;20062;-93
2023/03/16 02:01:51;;;;;;;2.33;1.85;;;;;;;;;;5038743;28;20056;-93
2023/03/16 02:04:39;;;;;;;5.88;2.78;;;;;;;;;;5038623;28;20428;-93
2023/03/16 02:07:07;;;;;;;4.40;2.28;;;;;;;;;;5038389;28;20056;-90
2023/03/16 02:09:37;;;;;;;6.75;2.85;;;;;;;;;;5038572;28;20056;-93
2023/03/16 02:12:04;;;;;;;2.78;2.08;;;;;;;;;;5038602;28;20045;-90
2023/03/16 02:14:32;;;;;;;4.45;2.05;;;;;;;;;;5038445;28;20151;-91
2023/03/16 02:16:59;;;;;;;5.80;2.38;;;;;;;;;;5038705;28;20135;-91
2023/03/16 02:19:47;;;;;;;9.10;2.58;;;;;;;;;;5038434;28;20057;-90
2023/03/16 02:22:14;;;;;;;4.80;1.98;;;;;;;;;;5039025;28;20499;-90
2023/03/16 02:24:41;;;;;;;4.85;1.98;;;;;;;;;;5038393;28;20056;-90
2023/03/16 02:27:11;;;;;;;8.38;2.33;;;;;;;;;;5038876;28;20109;-90
2023/03/16 02:29:52;;;;;;;2.72;2.50;;;;;;;;;;5039476;28;20409;-90
2023/03/16 02:32:20;;;;;;;3.40;2.20;;;;;;;;;;5039425;28;20055;-90
2023/03/16 02:34:47;;;;;;;4.47;2.95;;;;;;;;;;5051102;28;20142;-93
2023/03/16 02:37:15;;;;;;;8.57;2.70;;;;;;;;;;5057814;28;20056;-93
2023/03/16 02:39:42;;;;;;;4.18;2.10;;;;;;;;;;5043658;28;20095;-91
2023/03/16 02:42:15;;;;;;;7.60;2.50;;;;;;;;;;5044107;28;20052;-91
2023/03/16 02:44:45;;;;;;;5.30;2.05;;;;;;;;;;5043891;28;20144;-91
2023/03/16 02:47:16;;;;;;;4.00;2.20;;;;;;;;;;5042423;28;20045;-91
2023/03/16 02:49:44;;;;;;;5.72;2.47;;;;;;;;;;5040904;28;20121;-93
2023/03/16 02:52:12;;;;;;;3.88;2.03;;;;;;;;;;5040578;28;20053;-91
2023/03/16 02:54:39;;;;;;;7.32;2.28;;;;;;;;;;5040594;28;20057;-93
2023/03/16 02:57:06;;;;;;;9.77;3.20;;;;;;;;;;5041051;28;20072;-94
2023/03/16 02:59:34;;;;;;;6.40;2.50;;;;;;;;;;5040624;28;20113;-91
2023/03/16 03:02:01;;;;;;;11.90;2.70;;;;;;;;;;5043410;28;20063;-94
2023/03/16 03:04:28;;;;;;;5.57;2.10;;;;;;;;;;5043572;28;20048;-91
2023/03/16 03:07:02;;;;;;;7.30;2.60;;;;;;;;;;5045392;28;20112;-91
2023/03/16 03:09:31;;;;;;;4.05;2.13;;;;;;;;;;5045512;28;20059;-91
2023/03/16 03:11:59;;;;;;;6.82;2.13;;;;;;;;;;5047203;28;20076;-91
2023/03/16 03:14:27;;;;;;;8.45;1.92;;;;;;;;;;5030571;28;20494;-92
2023/03/16 03:16:54;;;;;;;5.78;1.92;;;;;;;;;;5046469;28;20136;-91
2023/03/16 03:19:22;;;;;;;5.15;1.80;;;;;;;;;;5047308;28;20075;-91
2023/03/16 03:21:49;;;;;;;3.35;1.75;;;;;;;;;;5049637;28;20060;-91
2023/03/16 03:24:17;;;;;;;3.53;2.00;;;;;;;;;;5044654;28;20479;-92
2023/03/16 03:26:45;;;;;;;5.25;2.10;;;;;;;;;;5046311;28;20045;-92
2023/03/16 03:29:12;;;;;;;4.55;2.00;;;;;;;;;;5046837;28;20060;-92
2023/03/16 03:31:39;;;;;;;3.00;1.77;;;;;;;;;;5046575;28;20055;-93
2023/03/16 03:34:07;;;;;;;2.40;1.75;;;;;;;;;;5046676;28;20079;-94
2023/03/16 03:36:34;;;;;;;6.00;1.50;;;;;;;;;;5046979;28;20060;-92
2023/03/16 03:39:03;;;;;;;6.75;2.45;;;;;;;;;;5065266;28;20045;-92
2023/03/16 03:41:31;;;;;;;6.43;2.38;;;;;;;;;;5046521;28;20472;-92
2023/03/16 03:43:59;;;;;;;5.82;2.13;;;;;;;;;;5046242;28;20099;-93
2023/03/16 03:46:27;;;;;;;5.03;2.05;;;;;;;;;;5047055;28;20072;-92
2023/03/16 03:48:57;;;;;;;1.92;1.80;;;;;;;;;;5048094;28;20504;-93
2023/03/16 03:51:24;;;;;;;6.65;2.38;;;;;;;;;;5048641;28;20140;-93
2023/03/16 03:53:52;;;;;;;2.95;2.20;;;;;;;;;;5047984;28;20075;-92
2023/03/16 03:56:19;;;;;;;4.45;2.42;;;;;;;;;;5050253;28;20127;-93
2023/03/16 03:58:46;;;;;;;10.02;1.95;;;;;;;;;;5050020;28;20049;-92
2023/03/16 04:01:14;;;;;;;3.67;2.42;;;;;;;;;;5045607;28;20548;-93
2023/03/16 04:03:41;;;;;;;7.32;2.25;;;;;;;;;;5046949;28;20061;-92
2023/03/16 04:06:11;;;;;;;6.18;2.75;;;;;;;;;;5046992;28;20060;-92
2023/03/16 04:08:38;;;;;;;7.95;2.75;;;;;;;;;;5046186;28;20045;-92
2023/03/16 04:11:06;;;;;;;4.10;2.05;;;;;;;;;;5046848;28;20076;-93
2023/03/16 04:13:33;;;;;;;6.50;2.53;;;;;;;;;;5047908;28;20045;-93
2023/03/16 04:16:01;;;;;;;5.18;1.90;;;;;;;;;;5048423;28;20500;-92
2023/03/16 04:18:29;;;;;;;3.38;1.80;;;;;;;;;;5050633;28;20041;-93
2023/03/16 04:20:57;;;;;;;5.28;2.30;;;;;;;;;;5051405;28;20053;-94
2023/03/16 04:23:25;;;;;;;8.85;2.25;;;;;;;;;;5053966;28;20056;-93
2023/03/16 04:25:56;;;;;;;4.18;2.80;;;;;;;;;;5055110;28;20113;-93
2023/03/16 04:28:28;;;;;;;5.75;2.50;;;;;;;;;;5055227;28;20079;-93
2023/03/16 04:31:10;;;;;;;2.72;2.00;;;;;;;;;;5043389;28;20057;-93
2023/03/16 04:33:41;;;;;;;3.90;1.95;;;;;;;;;;5057419;28;20072;-93
2023/03/16 04:36:10;;;;;;;6.47;1.98;;;;;;;;;;5057038;28;20053;-94
2023/03/16 04:38:42;;;;;;;5.22;1.95;;;;;;;;;;5057844;28;20041;-93
2023/03/16 04:41:24;;;;;;;2.92;2.00;;;;;;;;;;5049232;22;20081;-79
2023/03/16 04:43:51;;;;;;;5.93;1.90;;;;;;;;;;5012916;28;20089;-80
2023/03/16 04:46:18;;;;;;;3.25;2.05;;;;;;;;;;5012939;28;20050;-79
2023/03/16 04:48:45;;;;;;;4.55;1.80;;;;;;;;;;4995837;28;20061;-79
2023/03/16 04:51:12;;;;;;;4.00;1.80;;;;;;;;;;5011763;28;20084;-79
2023/03/16 04:53:40;;;;;;;3.70;2.00;;;;;;;;;;4995855;28;20128;-79
2023/03/16 04:56:07;;;;;;;2.75;2.13;;;;;;;;;;5012751;28;20485;-79
2023/03/16 04:58:34;;;;;;;7.15;2.00;;;;;;;;;;4995908;28;20060;-79
2023/03/16 05:01:01;;;;;;;4.68;2.33;;;;;;;;;;5013138;28;20050;-80
2023/03/16 05:03:29;;;;;;;5.18;1.95;;;;;;;;;;5013013;28;20457;-80
2023/03/16 05:05:56;;;;;;;3.92;1.98;;;;;;;;;;4995576;28;20104;-79
2023/03/16 05:08:23;;;;;;;5.05;1.50;;;;;;;;;;4995201;28;20050;-80
2023/03/16 05:10:50;;;;;;;3.47;2.15;;;;;;;;;;4995414;28;20049;-80
2023/03/16 05:13:17;;;;;;;2.90;1.77;;;;;;;;;;5012965;28;20496;-79
2023/03/16 05:15:44;;;;;;;3.97;1.60;;;;;;;;;;5012712;28;20050;-80
2023/03/16 05:18:12;;;;;;;5.53;1.90;;;;;;;;;;5012847;28;20074;-78
2023/03/16 05:20:40;;;;;;;3.80;1.80;;;;;;;;;;4995054;28;20050;-78
2023/03/16 05:23:07;;;;;;;7.50;2.00;;;;;;;;;;5014339;28;20523;-79
2023/03/16 05:25:34;;;;;;;2.35;1.95;;;;;;;;;;5016300;28;20054;-79
2023/03/16 05:28:02;;;;;;;4.22;1.70;;;;;;;;;;5016294;28;20070;-80
2023/03/16 05:30:30;;;;;;;3.63;2.10;;;;;;;;;;5016130;28;20128;-80
2023/03/16 05:32:57;;;;;;;4.22;2.13;;;;;;;;;;4999618;28;20523;-79
2023/03/16 05:35:24;;;;;;;8.68;2.75;;;;;;;;;;5017264;28;20057;-80
2023/03/16 05:37:51;;;;;;;6.93;2.97;;;;;;;;;;4999628;28;20064;-79
2023/03/16 05:40:21;;;;;;;10.57;3.08;;;;;;;;;;4998783;28;20058;-80
2023/03/16 05:42:53;;;;;;;12.75;2.88;;;;;;;;;;5015424;28;20062;-80
2023/03/16 05:45:21;;;;;;;8.77;3.35;;;;;;;;;;4997772;28;20056;-79
2023/03/16 05:47:48;;;;;;;11.68;3.00;;;;;;;;;;5015177;28;20085;-79
2023/03/16 05:50:15;;;;;;;3.42;2.25;;;;;;;;;;5015367;28;20049;-80
2023/03/16 05:52:43;;;;;;;10.52;2.35;;;;;;;;;;4997907;28;20551;-81
2023/03/16 05:55:13;;;;;;;4.45;2.25;;;;;;;;;;4997802;28;20057;-80
2023/03/16 05:57:40;;;;;;;4.00;2.40;;;;;;;;;;4997901;28;20050;-80
2023/03/16 06:00:14;;;;;;;4.82;2.63;;;;;;;;;;5014840;28;20050;-79
2023/03/16 06:02:48;;;;;;;8.70;2.75;;;;;;;;;;4997463;28;20600;-79
2023/03/16 06:05:16;;;;;;;5.85;2.30;;;;;;;;;;4997998;28;20100;-81
2023/03/16 06:07:43;;;;;;;5.75;2.70;;;;;;;;;;5015053;28;20050;-80
2023/03/16 06:10:11;;;;;;;7.63;3.05;;;;;;;;;;5019015;28;20511;-80
2023/03/16 06:12:38;;;;;;;9.32;4.15;;;;;;;;;;5018163;28;20132;-80
2023/03/16 06:15:06;;;;;;;8.68;3.97;;;;;;;;;;5017160;28;20520;-81
2023/03/16 06:17:34;;;;;;;14.20;4.80;;;;;;;;;;4998083;28;20046;-80
2023/03/16 06:20:02;;;;;;;15.25;5.75;;;;;;;;;;5014943;28;20480;-80
2023/03/16 06:22:29;;;;;;;18.60;5.80;;;;;;;;;;4997455;28;20053;-80
2023/03/16 06:24:56;;;;;;;21.23;6.88;;;;;;;;;;4998248;28;20046;-80
2023/03/16 06:27:25;;;;;;;12.18;5.60;;;;;;;;;;4999381;28;20049;-80
2023/03/16 06:29:52;;;;;;;16.75;6.07;;;;;;;;;;5016219;28;20053;-80
2023/03/16 06:32:20;;;;;;;15.90;6.55;;;;;;;;;;4999003;28;20096;-80
2023/03/16 06:34:48;;;;;;;25.60;10.75;;;;;;;;;;4997501;28;20046;-80
2023/03/16 06:37:15;;;;;;;17.35;9.43;;;;;;;;;;4998519;28;20132;-80
2023/03/16 06:39:43;;;;;;;23.38;13.60;;;;;;;;;;4998119;28;20050;-81
2023/03/16 06:42:10;;;;;;;53.03;27.42;;;;;;;;;;4997135;28;20056;-80
2023/03/16 06:44:38;;;;;;;35.45;18.33;;;;;;;;;;5014706;28;20046;-80
2023/03/16 06:47:05;;;;;;;26.42;15.30;;;;;;;;;;4997290;28;20041;-80
2023/03/16 06:49:32;;;;;;;27.92;11.88;;;;;;;;;;4997151;28;20074;-80
2023/03/16 06:52:00;;;;;;;18.30;8.20;;;;;;;;;;4996581;28;20056;-80
2023/03/16 06:54:27;;;;;;;13.43;7.03;;;;;;;;;;4996948;28;20082;-80
2023/03/16 06:56:55;;;;;;;12.20;5.70;;;;;;;;;;4996983;28;20058;-80
2023/03/16 06:59:22;;;;;;;21.25;8.68;;;;;;;;;;4996676;28;20080;-80
2023/03/16 07:01:49;;;;;;;49.53;25.27;;;;;;;;;;5014692;28;20587;-81
2023/03/16 07:04:16;;;;;;;27.77;14.75;;;;;;;;;;4996574;28;20054;-79
2023/03/16 07:06:44;;;;;;;21.50;8.75;;;;;;;;;;5013675;28;20057;-80
2023/03/16 07:09:11;;;;;;;22.05;8.18;;;;;;;;;;5013813;28;20129;-79
2023/03/16 07:11:38;;;;;;;22.05;8.05;;;;;;;;;;5013991;28;20050;-81
2023/03/16 07:14:05;;;;;;;25.75;8.85;;;;;;;;;;4996918;28;20186;-80
2023/03/16 07:16:33;;;;;;;29.30;11.50;;;;;;;;;;5014446;28;20056;-80
2023/03/16 07:19:00;;;;;;;33.20;14.55;;;;;;;;;;5014101;28;20056;-80
2023/03/16 07:21:27;;;;;;;38.30;15.55;;;;;;;;;;4995984;28;20150;-80
2023/03/16 07:23:55;;;;;;;1999.90;399.58;;;;;;;;;;5013743;28;20479;-81
2023/03/16 07:26:22;;;;;;;1999.90;606.38;;;;;;;;;;4996796;28;20053;-81
2023/03/16 07:28:49;;;;;;;1999.90;999.90;;;;;;;;;;4996698;28;20045;-81
2023/03/16 07:31:16;;;;;;;1999.90;999.90;;;;;;;;;;4996376;28;20056;-80
2023/03/16 07:33:43;;;;;;;113.82;52.70;;;;;;;;;;4996279;28;20551;-80
2023/03/16 07:36:11;;;;;;;189.05;44.25;;;;;;;;;;5013367;28;20141;-81
2023/03/16 07:38:38;;;;;;;53.80;15.10;;;;;;;;;;5013783;28;20137;-81
2023/03/16 07:41:06;;;;;;;41.40;11.32;;;;;;;;;;5013123;28;20141;-81
2023/03/16 07:43:33;;;;;;;48.20;13.43;;;;;;;;;;5013785;28;20477;-81
2023/03/16 07:46:00;;;;;;;46.03;12.43;;;;;;;;;;5012925;28;20045;-79
2023/03/16 07:48:27;;;;;;;48.95;14.75;;;;;;;;;;5012912;28;20061;-79
2023/03/16 07:50:54;;;;;;;70.72;22.25;;;;;;;;;;5013220;28;20481;-80
2023/03/16 07:53:22;;;;;;;119.97;35.20;;;;;;;;;;4995769;28;20046;-79
2023/03/16 07:55:49;;;;;;;121.60;33.13;;;;;;;;;;4995987;28;20049;-80
2023/03/16 07:58:17;;;;;;;96.18;26.88;;;;;;;;;;5013705;28;20421;-81
2023/03/16 08:00:44;;;;;;;39.88;10.23;;;;;;;;;;4995943;28;20085;-79
2023/03/16 08:03:12;;;;;;;37.67;11.50;;;;;;;;;;4996824;28;20356;-80
2023/03/16 08:05:40;;;;;;;27.40;10.10;;;;;;;;;;5014372;28;20049;-79
2023/03/16 08:08:08;;;;;;;27.08;5.88;;;;;;;;;;5014193;28;20046;-80
2023/03/16 08:10:36;;;;;;;24.63;4.85;;;;;;;;;;4997026;28;20104;-80
2023/03/16 08:13:03;;;;;;;23.50;9.25;;;;;;;;;;5015134;28;20427;-81
2023/03/16 08:15:32;;;;;;;28.45;9.50;;;;;;;;;;4997099;28;20062;-81
2023/03/16 08:18:01;;;;;;;22.63;8.55;;;;;;;;;;5015394;28;20048;-80
2023/03/16 08:20:29;;;;;;;20.67;5.70;;;;;;;;;;5016184;28;20077;-82
2023/03/16 08:22:57;;;;;;;21.80;5.32;;;;;;;;;;5016965;28;20065;-82
2023/03/16 08:25:25;;;;;;;18.80;5.20;;;;;;;;;;4998457;28;20054;-81
2023/03/16 08:27:52;;;;;;;18.23;4.65;;;;;;;;;;4997577;28;20049;-81
2023/03/16 08:30:21;;;;;;;17.27;5.15;;;;;;;;;;5014496;28;20522;-80
2023/03/16 08:32:49;;;;;;;17.98;4.78;;;;;;;;;;5014520;28;20128;-82
2023/03/16 08:35:16;;;;;;;17.73;4.60;;;;;;;;;;5015327;28;20054;-82
2023/03/16 08:37:45;;;;;;;24.55;6.80;;;;;;;;;;5014406;28;20522;-82
2023/03/16 08:40:14;;;;;;;22.25;6.25;;;;;;;;;;4997257;28;20053;-82
2023/03/16 08:42:43;;;;;;;13.23;5.03;;;;;;;;;;5014636;28;20075;-82
2023/03/16 08:45:10;;;;;;;10.57;2.90;;;;;;;;;;5016497;28;20057;-82
2023/03/16 08:47:40;;;;;;;27.15;3.50;;;;;;;;;;5014178;28;20046;-82
2023/03/16 08:50:08;;;;;;;23.67;3.90;;;;;;;;;;4996267;28;20053;-82
2023/03/16 08:52:35;;;;;;;12.68;2.80;;;;;;;;;;5013532;28;20053;-83
2023/03/16 08:55:04;;;;;;;7.40;2.35;;;;;;;;;;5013690;28;20133;-82
2023/03/16 08:57:32;;;;;;;6.80;1.88;;;;;;;;;;4997372;28;20475;-82
2023/03/16 09:00:00;;;;;;;25.65;3.10;;;;;;;;;;5016623;28;20064;-82
2023/03/16 09:02:27;;;;;;;9.48;1.45;;;;;;;;;;5016795;28;20061;-83
2023/03/16 09:04:55;;;;;;;3.67;1.02;;;;;;;;;;5016133;28;20138;-83
2023/03/16 09:07:22;;;;;;;2.50;0.77;;;;;;;;;;4999218;28;20050;-82
2023/03/16 09:09:49;;;;;;;2.38;0.90;;;;;;;;;;5016375;28;20057;-83
2023/03/16 09:12:17;;;;;;;3.08;1.50;;;;;;;;;;5015833;28;20083;-82
2023/03/16 09:14:44;;;;;;;3.03;1.15;;;;;;;;;;5015810;28;20073;-82
2023/03/16 09:17:12;;;;;;;3.13;1.00;;;;;;;;;;5015818;28;20041;-82
2023/03/16 09:19:39;;;;;;;3.28;0.90;;;;;;;;;;4998604;28;20424;-82
2023/03/16 09:22:18;;;;;;;11.40;1.30;;;;;;;;;;5015966;28;20054;-82
2023/03/16 09:24:46;;;;;;;5.55;1.45;;;;;;;;;;4998861;28;20073;-82
2023/03/16 09:27:14;;;;;;;4.18;0.80;;;;;;;;;;5015560;28;20042;-82
2023/03/16 09:29:42;;;;;;;1.50;0.93;;;;;;;;;;4998412;28;20069;-82
2023/03/16 09:32:09;;;;;;;18.27;10.60;;;;;;;;;;5016079;28;20046;-82
2023/03/16 09:34:38;;;;;;;4.35;0.90;;;;;;;;;;4998385;28;20416;-83
2023/03/16 09:37:05;;;;;;;5.22;1.63;;;;;;;;;;4998451;28;20045;-83
2023/03/16 09:39:32;;;;;;;6.03;2.38;;;;;;;;;;5017308;28;20042;-84
2023/03/16 09:42:08;;;;;;;7.20;1.85;;;;;;;;;;5019913;28;20053;-84
2023/03/16 09:44:47;;;;;;;4.80;0.95;;;;;;;;;;5001728;28;20432;-84
2023/03/16 09:47:15;;;;;;;2.47;0.88;;;;;;;;;;5018967;28;20073;-85
2023/03/16 09:49:45;;;;;;;13.07;1.95;;;;;;;;;;5000234;28;20080;-84
2023/03/16 09:52:20;;;;;;;1.95;0.77;;;;;;;;;;5018343;28;20042;-83
2023/03/16 09:54:58;;;;;;;1.83;0.95;;;;;;;;;;5017536;28;20050;-84
2023/03/16 09:57:30;;;;;;;2.75;0.98;;;;;;;;;;5016890;28;20050;-85
2023/03/16 10:00:00;;;;;;;14.52;1.67;;;;;;;;;;5017283;28;20056;-82
2023/03/16 10:03:02;;;;;;;5.47;1.10;;;;;;;;;;5016378;28;20050;-82
2023/03/16 10:05:31;;;;;;;2.08;1.00;;;;;;;;;;4936381;29;20058;-81
2023/03/16 10:08:04;;;;;;;2.92;0.80;;;;;;;;;;5002578;28;20088;-81
2023/03/16 10:10:39;;;;;;;5.40;1.08;;;;;;;;;;5016365;28;20056;-82
2023/03/16 10:13:16;;;;;;;5.15;1.10;;;;;;;;;;5000912;28;20046;-81
2023/03/16 10:15:45;;;;;;;4.35;0.90;;;;;;;;;;5018592;28;20046;-81
2023/03/16 10:18:15;;;;;;;2.47;0.90;;;;;;;;;;5015730;28;20054;-81
2023/03/16 10:20:44;;;;;;;5.22;1.10;;;;;;;;;;5015512;28;20060;-80
2023/03/16 10:23:20;;;;;;;1.90;0.75;;;;;;;;;;4998091;28;20058;-80
2023/03/16 10:25:48;;;;;;;5.80;1.27;;;;;;;;;;5015190;28;20500;-81
2023/03/16 10:28:20;;;;;;;1.48;0.90;;;;;;;;;;5014861;28;20056;-80
2023/03/16 10:30:49;;;;;;;5.38;1.00;;;;;;;;;;5015092;28;20060;-81
2023/03/16 10:33:19;;;;;;;2.33;0.85;;;;;;;;;;5014836;28;20512;-81
2023/03/16 10:35:48;;;;;;;2.00;0.80;;;;;;;;;;4997524;28;20137;-80
2023/03/16 10:38:37;;;;;;;4.22;0.90;;;;;;;;;;4997079;28;20049;-81
2023/03/16 10:41:26;;;;;;;5.03;1.60;;;;;;;;;;5014223;28;20060;-80
2023/03/16 10:43:56;;;;;;;6.35;0.95;;;;;;;;;;4996904;28;20061;-81
2023/03/16 10:46:24;;;;;;;3.28;0.82;;;;;;;;;;5014136;28;20056;-81
2023/03/16 10:49:00;;;;;;;6.78;1.27;;;;;;;;;;4997026;28;20041;-81
2023/03/16 10:51:31;;;;;;;3.10;0.70;;;;;;;;;;5014300;28;20049;-81
2023/03/16 10:54:28;;;;;;;2.45;0.85;;;;;;;;;;5014611;28;20469;-81
2023/03/16 10:56:55;;;;;;;2.50;0.70;;;;;;;;;;4997171;28;20050;-81
2023/03/16 10:59:32;;;;;;;3.63;0.70;;;;;;;;;;5018368;28;20053;-82
2023/03/16 11:02:13;;;;;;;3.42;1.25;;;;;;;;;;5019709;28;20060;-81
2023/03/16 11:04:40;;;;;;;4.45;1.30;;;;;;;;;;5019497;28;20050;-82
2023/03/16 11:07:08;;;;;;;2.80;1.10;;;;;;;;;;5019157;28;20133;-82
2023/03/16 11:09:36;;;;;;;2.63;0.90;;;;;;;;;;5001638;28;20100;-82
2023/03/16 11:12:14;;;;;;;4.50;1.00;;;;;;;;;;5018873;28;20485;-81
2023/03/16 11:14:45;;;;;;;1.58;0.80;;;;;;;;;;5000983;28;20061;-82
2023/03/16 11:17:16;;;;;;;4.35;1.00;;;;;;;;;;5017985;28;20108;-82
2023/03/16 11:19:50;;;;;;;1.38;0.80;;;;;;;;;;4998900;28;20546;-82
2023/03/16 11:22:20;;;;;;;3.47;0.80;;;;;;;;;;5016803;28;20089;-82
2023/03/16 11:24:56;;;;;;;3.20;1.13;;;;;;;;;;4999343;28;20516;-81
2023/03/16 11:27:23;;;;;;;3.15;0.70;;;;;;;;;;5015975;28;20583;-82
2023/03/16 11:30:08;;;;;;;3.40;0.93;;;;;;;;;;5015282;28;20064;-81
2023/03/16 11:32:37;;;;;;;5.05;0.98;;;;;;;;;;4998121;28;20046;-80
2023/03/16 11:35:18;;;;;;;4.93;1.00;;;;;;;;;;4997503;28;20140;-81
2023/03/16 11:37:57;;;;;;;1.10;0.57;;;;;;;;;;5015461;28;20049;-80
2023/03/16 11:40:43;;;;;;;1.98;0.60;;;;;;;;;;5014823;28;20052;-81
2023/03/16 11:43:28;;;;;;;4.38;0.90;;;;;;;;;;5014935;28;20074;-83
2023/03/16 11:46:09;;;;;;;3.10;0.60;;;;;;;;;;5014514;28;20137;-80
2023/03/16 11:48:42;;;;;;;2.53;0.70;;;;;;;;;;5014070;28;20046;-79
2023/03/16 11:51:21;;;;;;;3.15;0.70;;;;;;;;;;4996771;28;20148;-81
2023/03/16 11:53:51;;;;;;;2.13;0.70;;;;;;;;;;5014207;28;20077;-80
2023/03/16 11:56:26;;;;;;;1.05;0.63;;;;;;;;;;4996427;28;20050;-81
2023/03/16 11:59:01;;;;;;;4.18;0.88;;;;;;;;;;4995937;28;20141;-81
2023/03/16 12:01:47;;;;;;;1.92;0.85;;;;;;;;;;5013861;28;20146;-80
2023/03/16 12:04:45;;;;;;;19.65;15.57;;;;;;;;;;4997782;28;20081;-81
2023/03/16 12:07:19;;;;;;;1.15;1.00;;;;;;;;;;5012936;28;20046;-80
2023/03/16 12:09:47;;;;;;;15.95;11.77;;;;;;;;;;5013159;28;20053;-80
2023/03/16 12:12:23;;;;;;;13.55;11.52;;;;;;;;;;5013280;28;20045;-80
2023/03/16 12:14:50;;;;;;;0.90;0.40;;;;;;;;;;5013007;28;20046;-80
2023/03/16 12:17:19;;;;;;;2.72;1.15;;;;;;;;;;5013015;28;20046;-80
2023/03/16 12:19:59;;;;;;;2.00;0.68;;;;;;;;;;5012871;28;20056;-79
2023/03/16 12:22:38;;;;;;;3.03;0.90;;;;;;;;;;5013293;28;20129;-80
2023/03/16 12:25:12;;;;;;;1.45;0.65;;;;;;;;;;4995586;28;20517;-81
2023/03/16 12:27:40;;;;;;;1.05;0.60;;;;;;;;;;5013297;28;20520;-80
2023/03/16 12:30:16;;;;;;;1.13;0.68;;;;;;;;;;5012593;28;20056;-81
2023/03/16 12:32:46;;;;;;;7.82;1.48;;;;;;;;;;5022247;28;20109;-81
2023/03/16 12:35:32;;;;;;;4.13;1.00;;;;;;;;;;5008671;28;20073;-81
2023/03/16 12:38:03;;;;;;;10.88;1.88;;;;;;;;;;5022471;28;20057;-81
2023/03/16 12:40:59;;;;;;;1.90;0.80;;;;;;;;;;5004842;28;20416;-81
2023/03/16 12:43:42;;;;;;;3.10;0.75;;;;;;;;;;5006388;28;20085;-81
2023/03/16 12:46:26;;;;;;;4.80;1.45;;;;;;;;;;5021376;28;20119;-80
2023/03/16 12:48:55;;;;;;;2.90;0.63;;;;;;;;;;5024638;28;20056;-80
2023/03/16 12:51:40;;;;;;;7.10;1.02;;;;;;;;;;5003727;28;20149;-80
2023/03/16 12:54:21;;;;;;;5.85;0.80;;;;;;;;;;5023210;28;20417;-80
2023/03/16 12:56:49;;;;;;;8.27;1.30;;;;;;;;;;5020727;28;20084;-81
2023/03/16 12:59:18;;;;;;;4.72;1.10;;;;;;;;;;5003231;28;20054;-81
2023/03/16 13:01:48;;;;;;;8.80;1.33;;;;;;;;;;5022467;28;20509;-80
2023/03/16 13:04:20;;;;;;;4.50;1.00;;;;;;;;;;5018751;28;20133;-80
2023/03/16 13:06:49;;;;;;;1.75;0.43;;;;;;;;;;5019933;28;20523;-80
2023/03/16 13:09:20;;;;;;;1.05;0.50;;;;;;;;;;5018965;28;20049;-80
2023/03/16 13:11:49;;;;;;;2.88;1.33;;;;;;;;;;5002981;28;20073;-80
2023/03/16 13:14:37;;;;;;;9.55;1.55;;;;;;;;;;5017883;28;20100;-80
2023/03/16 13:17:05;;;;;;;4.35;1.00;;;;;;;;;;5000509;28;20112;-80
2023/03/16 13:19:36;;;;;;;1.42;0.57;;;;;;;;;;5018582;28;20080;-80
2023/03/16 13:22:24;;;;;;;1.67;0.90;;;;;;;;;;5000600;28;20054;-84
2023/03/16 13:24:53;;;;;;;4.40;1.00;;;;;;;;;;5018193;28;20475;-82
2023/03/16 13:27:22;;;;;;;1.55;0.50;;;;;;;;;;5015991;28;20050;-83
2023/03/16 13:29:54;;;;;;;1.45;0.40;;;;;;;;;;4999399;28;20493;-83
2023/03/16 13:32:22;;;;;;;11.90;1.48;;;;;;;;;;5016737;28;20133;-82
2023/03/16 13:34:50;;;;;;;0.40;0.40;;;;;;;;;;4999001;28;20061;-82
2023/03/16 13:37:19;;;;;;;0.60;0.40;;;;;;;;;;5017280;28;20538;-83
2023/03/16 13:39:53;;;;;;;0.95;0.55;;;;;;;;;;5024264;28;20056;-83
2023/03/16 13:42:22;;;;;;;12.02;1.20;;;;;;;;;;5004707;28;20072;-84
2023/03/16 13:44:53;;;;;;;10.45;0.70;;;;;;;;;;5005025;28;20515;-83
2023/03/16 13:47:21;;;;;;;4.60;0.70;;;;;;;;;;4998234;28;20049;-83
2023/03/16 13:49:55;;;;;;;2.38;1.00;;;;;;;;;;5015894;28;20504;-83
2023/03/16 13:52:30;;;;;;;1.98;0.80;;;;;;;;;;4998245;28;20050;-83
2023/03/16 13:54:58;;;;;;;9.02;1.33;;;;;;;;;;4998540;28;20481;-83
2023/03/16 13:57:27;;;;;;;3.22;0.63;;;;;;;;;;4998026;28;20085;-84
2023/03/16 14:00:06;;;;;;;1.67;1.17;;;;;;;;;;4997928;28;20133;-83
2023/03/16 14:02:41;;;;;;;6.95;1.38;;;;;;;;;;4997897;28;20133;-83
2023/03/16 14:05:17;;;;;;;1.92;0.60;;;;;;;;;;4998452;28;20093;-83
2023/03/16 14:07:47;;;;;;;0.60;0.60;;;;;;;;;;5020308;28;20137;-83
2023/03/16 14:10:15;;;;;;;1.35;0.50;;;;;;;;;;5020069;28;20120;-82
2023/03/16 14:13:04;;;;;;;4.45;0.73;;;;;;;;;;5002639;28;20073;-82
2023/03/16 14:15:35;;;;;;;1.00;0.47;;;;;;;;;;4965740;28;20500;-83
2023/03/16 14:18:14;;;;;;;0.40;0.40;;;;;;;;;;5003185;28;20119;-83
2023/03/16 14:20:42;;;;;;;1.17;0.50;;;;;;;;;;5018954;28;20077;-84
2023/03/16 14:23:39;;;;;;;2.30;0.52;;;;;;;;;;5017960;28;20144;-83
2023/03/16 14:26:11;;;;;;;1.13;0.88;;;;;;;;;;4932177;28;20055;-85
2023/03/16 14:28:39;;;;;;;13.93;1.20;;;;;;;;;;4999218;28;20046;-83
2023/03/16 14:31:09;;;;;;;3.92;0.85;;;;;;;;;;5017419;28;20129;-83
2023/03/16 14:33:38;;;;;;;2.10;1.00;;;;;;;;;;5016784;28;20579;-83
2023/03/16 14:36:13;;;;;;;4.00;0.93;;;;;;;;;;5015965;28;20045;-83
2023/03/16 14:38:42;;;;;;;3.70;1.08;;;;;;;;;;5015552;28;20050;-84
2023/03/16 14:41:20;;;;;;;2.65;0.80;;;;;;;;;;5016462;28;20089;-83
2023/03/16 14:43:49;;;;;;;6.15;1.95;;;;;;;;;;5016651;28;20132;-84
2023/03/16 14:46:22;;;;;;;1.35;1.00;;;;;;;;;;5014824;28;20049;-83
2023/03/16 14:48:49;;;;;;;7.47;1.73;;;;;;;;;;4998061;28;20137;-84
2023/03/16 14:51:16;;;;;;;1.50;0.82;;;;;;;;;;5014699;28;20081;-83
2023/03/16 14:53:43;;;;;;;1.67;1.10;;;;;;;;;;5014969;28;20046;-82
2023/03/16 14:56:15;;;;;;;2.20;0.80;;;;;;;;;;4995776;28;20397;-83
2023/03/16 14:58:42;;;;;;;3.28;1.00;;;;;;;;;;4997302;28;20046;-82